Time,TemperatureF,DewpointF,PressureIn,WindDirection,WindDirectionDegrees,WindSpeedMPH,WindSpeedGustMPH,Humidity,HourlyPrecipIn,Conditions,Clouds,dailyrainin,SolarRadiationWatts/m^2,SoftwareType,DateUTC
2015-04-28 00:05:00,43.2,29.5,30.09,East,85,2.0,-999.0,58,0.00,,,0.00,0,WeatherHawk,2015-04-28 05:05:00,
2015-04-28 00:16:00,42.3,29.0,30.09,East,79,0.0,-999.0,59,0.00,,,0.00,0,WeatherHawk,2015-04-28 05:16:00,
2015-04-28 00:25:00,42.2,29.7,30.08,East,98,0.0,-999.0,61,0.00,,,0.00,1,WeatherHawk,2015-04-28 05:25:00,
2015-04-28 00:35:00,42.5,30.0,30.09,NE,38,2.0,-999.0,61,0.00,,,0.00,0,WeatherHawk,2015-04-28 05:35:00,
2015-04-28 00:40:00,42.2,29.7,30.09,ESE,123,0.0,-999.0,61,0.00,,,0.00,0,WeatherHawk,2015-04-28 05:40:00,
2015-04-28 00:49:00,41.5,29.0,30.09,ESE,104,0.0,-999.0,61,0.00,,,0.00,0,WeatherHawk,2015-04-28 05:49:00,
2015-04-28 00:54:00,41.8,29.3,30.10,East,94,0.0,-999.0,61,0.00,,,0.00,0,WeatherHawk,2015-04-28 05:54:00,
2015-04-28 01:00:00,41.5,29.0,30.09,SE,144,0.0,-999.0,61,0.00,,,0.00,0,WeatherHawk,2015-04-28 06:00:00,
2015-04-28 01:09:00,41.3,29.3,30.10,SE,140,0.0,-999.0,62,0.00,,,0.00,0,WeatherHawk,2015-04-28 06:09:00,
2015-04-28 01:15:00,41.4,30.1,30.10,SE,139,0.0,-999.0,64,0.00,,,0.00,0,WeatherHawk,2015-04-28 06:15:00,
2015-04-28 01:24:00,40.9,30.0,30.10,SE,139,0.0,-999.0,65,0.00,,,0.00,0,WeatherHawk,2015-04-28 06:24:00,
2015-04-28 01:29:00,40.4,30.4,30.09,SE,139,0.0,-999.0,67,0.00,,,0.00,1,WeatherHawk,2015-04-28 06:29:00,
2015-04-28 01:35:00,39.8,30.1,30.09,SE,139,0.0,-999.0,68,0.00,,,0.00,0,WeatherHawk,2015-04-28 06:35:00,
2015-04-28 01:40:00,37.3,27.4,30.09,NE,42,0.0,-999.0,67,0.00,,,0.00,0,WeatherHawk,2015-04-28 06:40:00,
2015-04-28 02:04:00,38.0,33.0,30.09,NE,42,0.0,-999.0,82,0.00,,,0.00,1,WeatherHawk,2015-04-28 07:04:00,
2015-04-28 02:09:00,36.3,31.3,30.09,NE,42,0.0,-999.0,82,0.00,,,0.00,0,WeatherHawk,2015-04-28 07:09:00,
2015-04-28 02:14:00,36.3,31.6,30.09,NE,42,0.0,-999.0,83,0.00,,,0.00,1,WeatherHawk,2015-04-28 07:14:00,
2015-04-28 02:19:00,36.7,34.6,30.10,NE,42,0.0,-999.0,92,0.00,,,0.00,0,WeatherHawk,2015-04-28 07:19:00,
2015-04-28 02:24:00,35.9,33.5,30.09,NE,42,0.0,-999.0,91,0.00,,,0.00,1,WeatherHawk,2015-04-28 07:24:00,
2015-04-28 02:29:00,36.9,35.9,30.09,NE,42,0.0,-999.0,96,0.00,,,0.00,0,WeatherHawk,2015-04-28 07:29:00,
2015-04-28 02:34:00,36.3,35.2,30.10,NE,42,0.0,-999.0,96,0.00,,,0.00,0,WeatherHawk,2015-04-28 07:34:00,
2015-04-28 02:39:00,33.8,32.0,30.10,NE,42,0.0,-999.0,93,0.00,,,0.00,0,WeatherHawk,2015-04-28 07:39:00,
2015-04-28 02:45:00,35.5,33.9,30.10,NE,42,0.0,-999.0,94,0.00,,,0.00,0,WeatherHawk,2015-04-28 07:45:00,
2015-04-28 02:55:00,34.7,34.4,30.10,NE,42,0.0,-999.0,99,0.00,,,0.00,1,WeatherHawk,2015-04-28 07:55:00,
2015-04-28 03:00:00,33.9,33.6,30.10,NE,42,0.0,-999.0,99,0.00,,,0.00,0,WeatherHawk,2015-04-28 08:00:00,
2015-04-28 03:09:00,33.6,33.6,30.10,NE,42,0.0,-999.0,100,0.00,,,0.00,1,WeatherHawk,2015-04-28 08:09:00,
2015-04-28 03:14:00,35.2,35.2,30.10,NE,42,0.0,-999.0,100,0.00,,,0.00,0,WeatherHawk,2015-04-28 08:14:00,
2015-04-28 03:19:00,33.5,33.5,30.09,NE,42,0.0,-999.0,100,0.00,,,0.00,0,WeatherHawk,2015-04-28 08:19:00,
2015-04-28 03:25:00,35.7,35.7,30.11,NE,42,0.0,-999.0,100,0.00,,,0.00,0,WeatherHawk,2015-04-28 08:25:00,
2015-04-28 03:34:00,34.9,34.9,30.11,NE,42,0.0,-999.0,100,0.00,,,0.00,0,WeatherHawk,2015-04-28 08:34:00,
2015-04-28 03:39:00,34.5,34.5,30.11,NE,42,0.0,-999.0,100,0.00,,,0.00,0,WeatherHawk,2015-04-28 08:39:00,
2015-04-28 03:44:00,33.0,33.0,30.11,NE,42,0.0,-999.0,100,0.00,,,0.00,1,WeatherHawk,2015-04-28 08:44:00,
2015-04-28 03:50:00,32.9,32.9,30.11,NE,42,0.0,-999.0,100,0.00,,,0.00,0,WeatherHawk,2015-04-28 08:50:00,
2015-04-28 03:55:00,33.1,33.1,30.11,NE,42,0.0,-999.0,100,0.00,,,0.00,0,WeatherHawk,2015-04-28 08:55:00,
2015-04-28 04:04:00,34.2,34.2,30.11,NE,42,0.0,-999.0,100,0.00,,,0.00,0,WeatherHawk,2015-04-28 09:04:00,
2015-04-28 04:14:00,32.5,32.5,30.10,NE,42,0.0,-999.0,100,0.00,,,0.00,1,WeatherHawk,2015-04-28 09:14:00,
2015-04-28 04:19:00,31.7,31.7,30.12,NE,42,0.0,-999.0,100,0.00,,,0.00,0,WeatherHawk,2015-04-28 09:19:00,
2015-04-28 04:24:00,31.7,31.7,30.10,NE,42,0.0,-999.0,100,0.00,,,0.00,0,WeatherHawk,2015-04-28 09:24:00,
2015-04-28 04:29:00,32.0,32.0,30.10,NE,42,0.0,-999.0,100,0.00,,,0.00,0,WeatherHawk,2015-04-28 09:29:00,
2015-04-28 04:34:00,33.2,33.2,30.11,NE,42,0.0,-999.0,100,0.00,,,0.00,0,WeatherHawk,2015-04-28 09:34:00,
2015-04-28 04:40:00,33.2,33.2,30.11,NE,42,0.0,-999.0,100,0.00,,,0.00,0,WeatherHawk,2015-04-28 09:40:00,
2015-04-28 04:50:00,34.2,34.2,30.11,NE,42,0.0,-999.0,100,0.00,,,0.00,0,WeatherHawk,2015-04-28 09:50:00,
2015-04-28 04:59:00,33.1,33.1,30.10,NE,42,0.0,-999.0,100,0.00,,,0.00,0,WeatherHawk,2015-04-28 09:59:00,
2015-04-28 05:05:00,33.6,33.6,30.11,NE,42,0.0,-999.0,100,0.00,,,0.00,0,WeatherHawk,2015-04-28 10:05:00,
2015-04-28 05:14:00,32.5,32.5,30.10,NE,42,0.0,-999.0,100,0.00,,,0.00,0,WeatherHawk,2015-04-28 10:14:00,
2015-04-28 05:20:00,32.7,32.7,30.11,NE,42,0.0,-999.0,100,0.00,,,0.00,0,WeatherHawk,2015-04-28 10:20:00,
2015-04-28 05:29:00,31.9,31.9,30.10,NE,42,0.0,-999.0,100,0.00,,,0.00,0,WeatherHawk,2015-04-28 10:29:00,
2015-04-28 05:35:00,32.8,32.8,30.11,NE,42,0.0,-999.0,100,0.00,,,0.00,1,WeatherHawk,2015-04-28 10:35:00,